• Join FlightAware (Why Join?)
  • Login
  • US Flag 
07:05AM EDT


 

Airport Tracker/Info


-or-


 

Live Flight TrackerFlight Track Log ✈ N404EW ✈ 29-Mar-2014 ✈ KLAS - KSDL

Flight Track Log - Related Links

Times and Time Zones

All times are in EDT time to prevent confusion due to time zone crossing. See the N404EW flight status page for this flight to view local times or setup timezone preferences in your user account.

Time Position Orientation Groundspeed Altitude Reporting Facility
EDT Latitude Longitude Course Direction KTS MPH feet Rate Location/Type
01:16PM 36.0675 -115.1286 180° South 164 189 3,400  Level Los Angeles Center
01:17PM 36.0264 -115.1286 180° South 171 197 5,400 2,160 Climbing Los Angeles Center
01:17PM 36.0236 -115.1272 158° South 170 196 5,600 1,560 Climbing Los Angeles Center
01:18PM 35.9733 -115.1331 185° South 204 235 7,000 1,320 Climbing Los Angeles Center
01:18PM 35.9647 -115.1300 164° South 204 235 7,000 300 Level Los Angeles Center
01:19PM 35.9325 -115.0747 126° Southeast 294 338 7,300 540 Climbing Los Angeles Center
01:19PM 35.9278 -115.0517 104° East 274 315 7,600 1,560 Climbing Los Angeles Center
01:20PM 35.9111 -114.9861 107° East 273 314 8,900 1,920 Climbing Los Angeles Center
01:20PM 35.9069 -114.9586 101° East 266 306 9,600 1,980 Climbing Los Angeles Center
01:21PM 35.8922 -114.8828 103° East 246 283 11,500 1,800 Climbing Los Angeles Center
01:22PM 35.8739 -114.8017 106° East 246 283 13,400 1,800 Climbing Los Angeles Center
01:23PM 35.8564 -114.7211 105° East 246 283 15,300 1,740 Climbing Los Angeles Center
01:24PM 35.7944 -114.6544 139° Southeast 244 281 17,100 1,560 Climbing Los Angeles Center
01:25PM 35.7389 -114.5978 140° Southeast 257 296 18,600 900 Climbing Los Angeles Center
01:26PM 35.6797 -114.5361 140° Southeast 283 326 19,000 180 Climbing Los Angeles Center
01:27PM 35.6131 -114.4692 141° Southeast 306 352 19,000  Level Los Angeles Center
01:28PM 35.5481 -114.3939 137° Southeast 315 362 19,000  Level Los Angeles Center
01:29PM 35.4975 -114.3039 125° Southeast 321 369 19,000  Level Los Angeles Center
01:30PM 35.4325 -114.1989 127° Southeast 321 369 19,000  Level Los Angeles Center
01:31PM 35.3764 -114.1133 129° Southeast 321 369 19,000  Level Los Angeles Center
01:32PM 35.3206 -114.0269 128° Southeast 321 369 19,000 540 Level Los Angeles Center
01:33PM 35.2692 -113.9436 127° Southeast 310 357 20,200 960 Climbing Los Angeles Center
01:34PM 35.2358 -113.8417 112° Southeast 294 338 21,000 360 Climbing Los Angeles Center
01:35PM 35.1983 -113.7439 115° Southeast 315 362 21,000  Level Los Angeles Center
01:36PM 35.1594 -113.6428 115° Southeast 326 375 21,000  Level Los Angeles Center
01:37PM 35.1208 -113.5428 115° Southeast 327 376 21,000  Level Los Angeles Center
01:39PM 35.0811 -113.4417 116° Southeast 331 381 21,000  Level Los Angeles Center
01:40PM 35.0336 -113.3208 116° Southeast 331 381 21,000  Level Los Angeles Center
01:41PM 34.9958 -113.2194 114° Southeast 330 380 21,000  Level Albuquerque Center
01:42PM 34.9561 -113.1186 116° Southeast 332 382 21,000 -300 Level Albuquerque Center
01:43PM 34.9222 -113.0144 112° Southeast 333 383 20,500 -600 Descending Albuquerque Center
01:44PM 34.8853 -112.8842 109° East 341 392 19,800 -660 Descending Albuquerque Center
01:45PM 34.8533 -112.7778 110° East 341 392 19,200 -300 Descending Albuquerque Center
01:47PM 34.7881 -112.5675 111° Southeast 336 387 19,000 -240 Descending Albuquerque Center
01:48PM 34.7561 -112.4650 111° Southeast 329 379 18,500 -480 Descending Albuquerque Center
01:49PM 34.7219 -112.3572 111° Southeast 329 379 18,100 -360 Descending Albuquerque Center
01:50PM 34.6833 -112.2319 111° Southeast 329 379 17,800 -360 Descending Albuquerque Center
01:51PM 34.6503 -112.1297 111° Southeast 329 379 17,400 -420 Descending Albuquerque Center
01:52PM 34.6186 -112.0267 110° East 328 377 17,000 -540 Descending Albuquerque Center
01:53PM 34.5467 -111.9631 144° Southeast 324 373 16,300 -780 Descending Albuquerque Center
01:54PM 34.4625 -111.9247 159° South 324 373 15,400 -780 Descending Albuquerque Center
01:55PM 34.3772 -111.9308 183° South 309 356 14,700 -1,080 Descending Albuquerque Center
01:56PM 34.2925 -111.9319 181° South 308 354 13,200 -1,680 Descending Albuquerque Center
01:57PM 34.1889 -111.9214 175° South 309 356 11,300 -1,260 Descending Albuquerque Center
01:58PM 34.1094 -111.9142 176° South 288 331 10,700 -780 Descending Albuquerque Center
01:59PM 34.0347 -111.8900 165° South 283 326 9,800 -900 Descending Albuquerque Center
02:00PM 33.9631 -111.8664 165° South 279 321 8,900 -900 Descending Albuquerque Center
02:01PM 33.8792 -111.8419 166° South 271 312 8,000 -960 Descending Albuquerque Center
02:02PM 33.8092 -111.8306 172° South 262 302 7,000 -1,200 Descending Albuquerque Center
02:03PM 33.7403 -111.8556 197° South 257 296 5,600 -1,560 Descending Albuquerque Center
02:04PM 33.6850 -111.8644 188° South 223 257 3,800 -1,620 Descending Albuquerque Center
02:05PM 33.6478 -111.8811 200° South 177 204 2,300 -1,140 Descending Albuquerque Center
02:06PM 33.6231 -111.9069 221° Southwest 126 145 1,500 -780 Descending Albuquerque Center
02:08PM 33.6229 -111.9105 189° South  Level Estimated